Montezuma, NM (87731)

11:00 AM MDT on April 01, 2015 (GMT -0600)
Las Vegas Municipal | | Change Station
CLOSE
Current Station
Airport
Location: Las Vegas,
Elevation: 6877 ft
Nearby Weather Stations
Active Advisory: Fire Weather Warning

Elev 6877 ft 35.65 °N, 105.14 °W | Updated 7 minutes ago

Clear
Clear
64 °F
Feels Like 64 °F
N
6
Wind Variable Wind from Variable

Today
High -- | Low -- °F
--% Chance of Precip.
Yesterday
High -- | Low -- °F
Precip. -- in
6:47 AM 7:22 PM
Waxing Gibbous, 93% visible
Pressure 29.75 in
Visibility 10.0 miles
Clouds Clear
Dew Point 24 °F
Humidity 22%
Rainfall 0.00 in
Snow Depth Not available.
UV 7 out of 12
Pollen 11.00 out of 12
Air Quality Not available.
Flu Activity Not available.
METAR KLVS 011653Z AUTO VRB05KT 10SM CLR 18/M04 A3000 RMK AO2 SLP074 T01781044

More Conditions Fewer Conditions

Pressure 29.75 in
Visibility 10.0 miles
Clouds Clear
Dew Point 24 °F
Humidity 22%
Rainfall 0.00 in
Snow Depth Not available.
UV 7 out of 12
Pollen 11.00 out of 12
Air Quality Not available.
Flu Activity Not available.
METAR KLVS 011653Z AUTO VRB05KT 10SM CLR 18/M04 A3000 RMK AO2 SLP074 T01781044

More Conditions Fewer Conditions

10-Day Weather Forecast

Almanac

Astronomy

Apr. 01, 2015 Rise Set
Actual Time
Civil Twilight
Nautical Twilight
Astronomical Twilight
Moon
Length of Visible Light
Length of Day
Tomorrow will be .
, % of the Moon is Illuminated

Today's Extremes

State Highs State Lows

Community

WunderPhotos

Upload Photos

1,810,011 photos uploaded!

WunderBlogs® & News

Nearby

Air Quality

  Air Quality AQ Index Pollutant
Not available.

Snow Depth

Station Depth Elevation

Earthquake Activity

City Distance Mag. Time & Date
Minimum magnitude displayed is 2.5.

Coastal Water Temperatures

Place Temperature

Stations

Nearby Weather Stations

Station Location Temp. Windchill Dew Point Humidity Wind Precip. Elev Updated Type
                   
Fire Weather Warning
Statement as of 6:03 AM MDT on April 01, 2015

... Red flag warning remains in effect from noon today to 7 PM MDT
this evening...
... Red flag warning remains in effect from 11 am to 9 PM MDT
Thursday...

A red flag warning remains in effect from noon today to 7 PM MDT
this evening. A red flag warning remains in effect from 11 am to
9 PM MDT Thursday.

* Area and timing... this includes the northeast and east Central
Plains as well as the northeast Highlands and Sandia... Manzano
and Gallinas Mountains below significant snow pack both
Wednesday and Thursday afternoon/S to early evening.

* 20 foot winds... on Wednesday... westerly 20 to 25 mph with
gusts to 35 mph increasing to 20 to 30 mph with gusts to 45
mph on Thursday.

* Relative humidity... minimums between 10 to 15 percent
Wednesday and 6 to 15 percent Thursday.

* Impacts... any fires that develop will likely spread rapidly.
Outdoor burning is not recommended.

Precautionary/preparedness actions...

Please advise the appropriate officials or fire crews in the
field of this red flag warning.